Time;durP1;ratioP1;P1;durP2;ratioP2;P2;SDS_P1;SDS_P2;PMS_P1;PMS_P2;Temp;Humidity;BMP_temperature;BMP_pressure;BME280_temperature;BME280_humidity;BME280_pressure;Samples;Min_cycle;Max_cycle;Signal;HPM_P1;HPM_P2
2020/12/04 00:01:23;;;;;;;29.95;16.13;;;;;;;-0.20;67.91;93589.53;5094254;28;20064;-49
2020/12/04 00:03:49;;;;;;;28.65;15.65;;;;;;;-0.23;67.77;93580.31;5093781;28;20075;-50
2020/12/04 00:06:16;;;;;;;31.23;17.08;;;;;;;-0.12;67.28;93586.84;5093257;28;20063;-49
2020/12/04 00:08:42;;;;;;;26.35;15.32;;;;;;;-0.18;67.87;93588.13;5091832;28;20060;-48
2020/12/04 00:11:09;;;;;;;26.83;16.17;;;;;;;-0.14;67.84;93580.28;5094055;28;20044;-50
2020/12/04 00:13:35;;;;;;;31.60;18.25;;;;;;;-0.26;68.05;93575.66;5092266;28;20071;-47
2020/12/04 00:16:02;;;;;;;28.58;16.45;;;;;;;-0.47;68.24;93554.38;5092957;28;20509;-47
2020/12/04 00:18:28;;;;;;;32.58;17.30;;;;;;;-0.25;68.49;93574.56;5092255;28;20087;-45
2020/12/04 00:20:55;;;;;;;30.48;16.02;;;;;;;-0.16;68.17;93577.16;5094037;28;20048;-48
2020/12/04 00:23:21;;;;;;;29.00;16.38;;;;;;;-0.07;67.87;93573.34;5092531;28;20070;-44
2020/12/04 00:25:48;;;;;;;28.13;16.77;;;;;;;-0.10;67.73;93573.22;5092624;28;20059;-47
2020/12/04 00:28:15;;;;;;;30.63;15.40;;;;;;;-0.04;67.81;93579.91;5093217;28;20040;-47
2020/12/04 00:30:41;;;;;;;29.42;15.73;;;;;;;-0.37;67.51;93522.09;5093330;28;20083;-48
2020/12/04 00:33:07;;;;;;;29.70;16.30;;;;;;;0.12;67.43;93570.25;5093454;28;20052;-47
2020/12/04 00:35:34;;;;;;;28.58;16.48;;;;;;;0.14;66.79;93578.69;5091308;28;20505;-50
2020/12/04 00:38:01;;;;;;;28.52;16.20;;;;;;;0.19;66.84;93569.72;5091472;28;20546;-45
2020/12/04 00:40:27;;;;;;;26.45;15.10;;;;;;;0.23;66.69;93560.81;5093106;28;20424;-45
2020/12/04 00:42:54;;;;;;;29.83;15.85;;;;;;;0.11;67.05;93560.72;5093175;28;20052;-48
2020/12/04 00:45:20;;;;;;;31.33;16.27;;;;;;;0.03;67.10;93540.28;5092332;28;20151;-48
2020/12/04 00:47:46;;;;;;;31.30;17.33;;;;;;;0.20;67.03;93558.78;5092729;28;20554;-49
2020/12/04 00:50:13;;;;;;;26.85;15.60;;;;;;;0.21;66.70;93559.56;5091635;28;20047;-44
2020/12/04 00:52:40;;;;;;;27.10;14.65;;;;;;;0.19;66.89;93543.16;5091645;28;20075;-46
2020/12/04 00:55:07;;;;;;;26.15;15.70;;;;;;;0.27;66.63;93552.19;5091355;28;20048;-47
2020/12/04 00:57:33;;;;;;;30.60;16.63;;;;;;;0.16;66.88;93538.47;5090640;28;20040;-45
2020/12/04 01:00:00;;;;;;;29.25;16.60;;;;;;;0.17;66.74;93519.56;5092474;28;20055;-46
2020/12/04 01:02:26;;;;;;;27.33;16.30;;;;;;;0.13;66.97;93510.69;5092728;28;20127;-46
2020/12/04 01:04:52;;;;;;;29.42;16.92;;;;;;;0.04;66.84;93494.00;5091342;28;20492;-48
2020/12/04 01:07:19;;;;;;;27.33;15.68;;;;;;;0.07;67.16;93506.66;5092183;28;20135;-44
2020/12/04 01:09:45;;;;;;;32.45;16.30;;;;;;;-0.03;67.39;93510.47;5092883;28;20578;-45
2020/12/04 01:12:13;;;;;;;29.15;15.73;;;;;;;0.02;67.41;93506.06;5092518;28;20560;-48
2020/12/04 01:14:39;;;;;;;29.38;16.13;;;;;;;-0.12;67.15;93487.72;5092736;28;20051;-50
2020/12/04 01:17:06;;;;;;;28.70;15.25;;;;;;;0.08;67.05;93502.09;5091722;28;20527;-46
2020/12/04 01:19:32;;;;;;;28.73;15.75;;;;;;;-0.05;67.19;93501.28;5092745;28;20055;-49
2020/12/04 01:21:58;;;;;;;28.50;15.48;;;;;;;-0.05;67.49;93491.41;5091399;28;20044;-49
2020/12/04 01:24:25;;;;;;;30.65;16.73;;;;;;;0.05;67.13;93500.09;5091905;28;20054;-53
2020/12/04 01:26:51;;;;;;;30.83;16.65;;;;;;;0.11;66.86;93502.22;5091534;28;20076;-49
2020/12/04 01:29:17;;;;;;;27.33;15.40;;;;;;;-0.13;66.82;93480.84;5091881;28;20562;-50
2020/12/04 01:31:47;;;;;;;30.27;16.13;;;;;;;-0.03;67.28;93521.13;5091873;28;20054;-48
2020/12/04 01:34:14;;;;;;;28.33;15.63;;;;;;;-0.10;67.51;93504.91;5091720;28;20044;-44
2020/12/04 01:36:41;;;;;;;28.50;16.02;;;;;;;-0.15;67.85;93499.00;5091056;28;20059;-48
2020/12/04 01:39:07;;;;;;;30.02;16.23;;;;;;;-0.12;68.06;93501.78;5092045;28;20052;-49
2020/12/04 01:41:35;;;;;;;29.10;16.10;;;;;;;-0.10;67.88;93502.25;5091756;28;20044;-50
2020/12/04 01:44:03;;;;;;;27.50;15.35;;;;;;;-0.25;68.28;93500.94;5091865;28;20074;-49
2020/12/04 01:46:30;;;;;;;25.33;14.75;;;;;;;-0.16;67.91;93502.75;5091249;28;20108;-47
2020/12/04 01:48:56;;;;;;;28.08;16.15;;;;;;;-0.09;67.59;93485.19;5092032;28;20421;-46
2020/12/04 01:51:24;;;;;;;31.85;15.55;;;;;;;-0.26;67.90;93475.47;5091597;28;20067;-47
2020/12/04 01:53:51;;;;;;;29.30;16.40;;;;;;;-0.30;68.39;93481.75;5091743;28;20060;-46
2020/12/04 01:56:18;;;;;;;27.38;15.95;;;;;;;-0.34;68.42;93470.22;5090806;28;20044;-47
2020/12/04 01:58:45;;;;;;;29.77;16.83;;;;;;;-0.20;68.16;93476.03;5091347;28;20040;-48
2020/12/04 02:01:15;;;;;;;31.30;15.68;;;;;;;-0.08;67.75;93475.34;5091677;28;20463;-47
2020/12/04 02:03:42;;;;;;;30.23;15.70;;;;;;;-0.18;67.82;93481.03;5091419;28;20052;-47
2020/12/04 02:06:30;;;;;;;26.60;15.15;;;;;;;-0.03;67.56;93472.50;5090779;28;20052;-46
2020/12/04 02:09:04;;;;;;;30.80;16.35;;;;;;;-0.04;67.44;93477.00;5091471;28;20050;-48
2020/12/04 02:11:32;;;;;;;29.35;15.80;;;;;;;-0.14;67.57;93458.03;5091404;28;20144;-49
2020/12/04 02:14:00;;;;;;;30.15;16.90;;;;;;;-0.27;68.04;93462.50;5091395;28;20133;-46
2020/12/04 02:16:27;;;;;;;29.23;15.65;;;;;;;-0.06;67.46;93452.66;5090542;28;20105;-48
2020/12/04 02:18:53;;;;;;;28.83;15.48;;;;;;;-0.07;67.06;93453.75;5091252;28;20113;-45
2020/12/04 02:21:20;;;;;;;29.10;15.80;;;;;;;-0.25;67.50;93437.16;5091237;28;20094;-50
2020/12/04 02:23:48;;;;;;;29.15;16.25;;;;;;;-0.43;67.97;93403.09;5090996;28;20055;-48
2020/12/04 02:26:17;;;;;;;28.40;15.98;;;;;;;-0.30;67.92;93432.03;5090746;28;20071;-48
2020/12/04 02:28:44;;;;;;;30.98;16.08;;;;;;;-0.33;67.67;93430.03;5091378;28;20048;-49
2020/12/04 02:31:10;;;;;;;28.95;16.10;;;;;;;-0.38;68.06;93413.53;5091104;28;20048;-49
2020/12/04 02:33:36;;;;;;;30.38;16.80;;;;;;;-0.39;68.06;93423.38;5094767;28;20075;-52
2020/12/04 02:36:04;;;;;;;30.23;16.40;;;;;;;-0.43;67.93;93406.50;5094326;28;20445;-48
2020/12/04 02:38:30;;;;;;;29.90;15.18;;;;;;;-0.39;67.97;93409.28;5095060;28;20127;-47
2020/12/04 02:40:57;;;;;;;29.30;15.73;;;;;;;-0.44;68.01;93420.13;5095161;28;20117;-49
2020/12/04 02:43:24;;;;;;;29.08;17.17;;;;;;;-0.48;68.08;93414.69;5095209;28;20505;-45
2020/12/04 02:45:50;;;;;;;28.70;16.05;;;;;;;-0.50;68.30;93406.25;5094275;28;20130;-45
2020/12/04 02:48:18;;;;;;;28.73;15.07;;;;;;;-0.36;67.78;93411.31;5095005;28;20454;-44
2020/12/04 02:50:45;;;;;;;28.67;17.17;;;;;;;-0.28;67.34;93399.84;5093503;28;20053;-45
2020/12/04 02:53:11;;;;;;;29.35;16.05;;;;;;;-0.39;67.59;93399.47;5095018;28;20058;-49
2020/12/04 02:55:38;;;;;;;27.38;16.30;;;;;;;-0.36;67.40;93396.13;5093221;28;20113;-51
2020/12/04 02:58:04;;;;;;;32.85;18.13;;;;;;;-0.35;67.83;93387.09;5094802;28;20422;-47
2020/12/04 03:00:31;;;;;;;33.20;17.15;;;;;;;-0.39;67.90;93386.19;5094720;28;20044;-50
2020/12/04 03:02:57;;;;;;;31.65;15.30;;;;;;;-0.60;68.38;93386.19;5095194;28;20105;-46
2020/12/04 03:05:24;;;;;;;30.88;16.33;;;;;;;-0.61;68.63;93378.53;5093909;28;20044;-48
2020/12/04 03:07:50;;;;;;;29.15;15.65;;;;;;;-0.71;68.85;93391.09;5094411;28;20048;-50
2020/12/04 03:10:16;;;;;;;32.83;17.33;;;;;;;-0.83;68.72;93363.72;5094690;28;20052;-47
2020/12/04 03:12:43;;;;;;;30.70;17.25;;;;;;;-0.67;68.51;93366.56;5094720;28;20054;-44
2020/12/04 03:15:09;;;;;;;30.45;17.20;;;;;;;-0.66;68.70;93376.84;5094634;28;20054;-45
2020/12/04 03:17:36;;;;;;;32.35;16.98;;;;;;;-0.74;68.66;93365.19;5093750;28;20143;-44
2020/12/04 03:20:04;;;;;;;32.28;16.80;;;;;;;-0.69;68.75;93372.19;5094183;28;20091;-46
2020/12/04 03:22:31;;;;;;;31.58;17.65;;;;;;;-0.80;68.97;93360.41;5094395;28;20075;-44
2020/12/04 03:24:58;;;;;;;30.65;16.40;;;;;;;-0.72;68.93;93352.34;5094252;28;20056;-46
2020/12/04 03:27:25;;;;;;;28.35;15.23;;;;;;;-0.63;68.63;93343.56;5093463;28;20059;-44
2020/12/04 03:29:51;;;;;;;29.75;16.10;;;;;;;-0.57;68.59;93353.66;5094266;28;20566;-46
2020/12/04 03:32:18;;;;;;;29.55;15.48;;;;;;;-0.50;68.15;93353.91;5094157;28;20100;-44
2020/12/04 03:34:44;;;;;;;31.05;16.02;;;;;;;-0.56;68.27;93360.53;5093870;28;20051;-48
2020/12/04 03:37:10;;;;;;;29.02;16.55;;;;;;;-0.47;68.02;93361.22;5093125;28;20090;-45
2020/12/04 03:39:37;;;;;;;29.75;16.67;;;;;;;-0.48;68.20;93350.94;5093866;28;20126;-45
2020/12/04 03:42:04;;;;;;;32.05;15.82;;;;;;;-0.50;68.43;93353.13;5093936;28;20060;-45
2020/12/04 03:44:31;;;;;;;25.88;15.07;;;;;;;-0.65;68.89;93351.06;5092137;28;20098;-45
2020/12/04 03:46:58;;;;;;;29.25;15.70;;;;;;;-0.66;68.28;93330.94;5092978;28;20090;-44
2020/12/04 03:49:24;;;;;;;30.35;15.73;;;;;;;-0.48;67.97;93335.78;5093681;28;20568;-46
2020/12/04 03:51:51;;;;;;;30.73;16.33;;;;;;;-0.56;68.09;93328.66;5094140;28;20105;-45
2020/12/04 03:54:17;;;;;;;30.50;16.05;;;;;;;-0.56;68.29;93323.34;5093730;28;20054;-47
2020/12/04 03:56:43;;;;;;;32.05;16.75;;;;;;;-0.60;68.49;93348.22;5092539;28;20055;-46
2020/12/04 03:59:10;;;;;;;30.65;15.88;;;;;;;-0.62;68.76;93329.19;5093578;28;20248;-44
2020/12/04 04:01:36;;;;;;;30.33;15.48;;;;;;;-0.67;68.17;93308.16;5093593;28;20130;-44
2020/12/04 04:04:03;;;;;;;29.27;16.05;;;;;;;-0.55;68.16;93330.22;5093609;28;20105;-44
2020/12/04 04:06:29;;;;;;;31.60;16.17;;;;;;;-0.60;68.06;93316.38;5092728;28;20059;-49
2020/12/04 04:08:56;;;;;;;29.20;15.90;;;;;;;-0.46;68.40;93314.19;5094033;28;20052;-50
2020/12/04 04:11:23;;;;;;;30.80;15.88;;;;;;;-0.47;68.41;93315.31;5093590;28;20051;-48
2020/12/04 04:13:49;;;;;;;27.55;15.35;;;;;;;-0.72;68.59;93293.94;5093342;28;20097;-44
2020/12/04 04:16:15;;;;;;;28.83;14.77;;;;;;;-0.81;68.58;93287.97;5092484;28;20044;-47
2020/12/04 04:18:42;;;;;;;31.08;16.00;;;;;;;-0.46;67.89;93322.16;5093026;28;20043;-53
2020/12/04 04:21:10;;;;;;;26.80;14.35;;;;;;;-0.48;68.02;93325.16;5093341;28;20131;-51
2020/12/04 04:23:38;;;;;;;27.42;15.18;;;;;;;-0.49;67.99;93328.13;5093498;28;20456;-49
2020/12/04 04:26:05;;;;;;;28.77;15.23;;;;;;;-0.53;68.47;93320.03;5091303;28;20130;-47
2020/12/04 04:28:32;;;;;;;30.58;15.32;;;;;;;-0.49;68.65;93312.19;5093152;28;20044;-46
2020/12/04 04:30:59;;;;;;;26.45;15.70;;;;;;;-0.32;68.60;93312.03;5092826;28;20130;-45
2020/12/04 04:33:25;;;;;;;27.77;15.77;;;;;;;-0.27;68.09;93311.06;5092750;28;20076;-46
2020/12/04 04:35:53;;;;;;;28.45;15.10;;;;;;;-0.30;68.17;93323.09;5092428;28;20355;-44
2020/12/04 04:38:19;;;;;;;28.77;15.57;;;;;;;-0.45;68.02;93301.72;5092845;28;20054;-49
2020/12/04 04:40:46;;;;;;;32.63;15.00;;;;;;;-0.43;68.35;93310.13;5093019;28;20048;-44
2020/12/04 04:43:14;;;;;;;28.17;15.63;;;;;;;-0.42;68.57;93311.66;5092690;28;20135;-45
2020/12/04 04:45:41;;;;;;;26.73;15.38;;;;;;;-0.31;68.28;93302.97;5092055;28;20050;-44
2020/12/04 04:48:15;;;;;;;28.17;15.10;;;;;;;-0.20;67.78;93315.81;5091576;28;20552;-45
2020/12/04 04:50:45;;;;;;;29.25;15.73;;;;;;;-0.11;67.55;93309.31;5092724;28;20497;-44
2020/12/04 04:53:12;;;;;;;26.10;15.18;;;;;;;-0.14;67.50;93311.88;5092687;28;20459;-49
2020/12/04 04:55:42;;;;;;;28.60;15.25;;;;;;;-0.15;67.57;93307.66;5091107;28;20390;-46
2020/12/04 04:58:09;;;;;;;27.92;15.48;;;;;;;-0.04;67.38;93301.56;5092624;28;20170;-48
2020/12/04 05:00:36;;;;;;;27.65;14.90;;;;;;;-0.04;67.30;93300.81;5092420;28;20554;-46
2020/12/04 05:03:09;;;;;;;28.20;14.13;;;;;;;0.10;67.22;93293.31;5092329;28;20067;-48
2020/12/04 05:05:40;;;;;;;27.65;14.73;;;;;;;0.05;66.72;93288.19;5091990;28;20044;-45
2020/12/04 05:08:22;;;;;;;30.00;15.98;;;;;;;0.17;66.95;93290.09;5091748;28;20477;-46
2020/12/04 05:10:49;;;;;;;28.30;14.15;;;;;;;0.10;66.82;93293.31;5092153;28;20055;-47
2020/12/04 05:13:20;;;;;;;25.60;14.18;;;;;;;0.08;66.60;93274.25;5092039;28;20087;-46
2020/12/04 05:15:47;;;;;;;26.88;14.45;;;;;;;0.14;66.73;93302.19;5091654;28;20486;-48
2020/12/04 05:18:17;;;;;;;30.85;15.93;;;;;;;0.21;66.72;93302.41;5092466;28;20047;-44
2020/12/04 05:20:49;;;;;;;29.83;15.25;;;;;;;0.13;66.96;93300.63;5092007;28;20055;-47
2020/12/04 05:23:15;;;;;;;30.80;15.32;;;;;;;0.09;67.03;93299.72;5091871;28;20044;-46
2020/12/04 05:25:44;;;;;;;30.05;15.45;;;;;;;0.01;67.33;93295.28;5091286;28;20054;-44
2020/12/04 05:28:13;;;;;;;27.25;15.88;;;;;;;0.06;67.34;93304.94;5092019;28;20151;-47
2020/12/04 05:30:42;;;;;;;31.15;15.82;;;;;;;-0.03;67.17;93307.69;5091970;28;20504;-46
2020/12/04 05:33:09;;;;;;;30.38;15.57;;;;;;;-0.06;67.64;93305.69;5092126;28;20133;-46
2020/12/04 05:35:36;;;;;;;30.88;16.67;;;;;;;-0.20;68.26;93313.16;5091040;28;20123;-46
2020/12/04 05:38:16;;;;;;;32.88;17.20;;;;;;;-0.21;68.43;93315.06;5091684;28;20088;-47
2020/12/04 05:41:06;;;;;;;29.23;15.52;;;;;;;-0.03;68.25;93316.44;5091752;28;20055;-46
2020/12/04 05:43:35;;;;;;;27.08;14.73;;;;;;;-0.11;67.84;93304.00;5091863;28;20467;-47
2020/12/04 05:46:22;;;;;;;27.23;15.10;;;;;;;-0.03;68.08;93313.00;5090917;28;20052;-45
2020/12/04 05:49:07;;;;;;;28.88;15.90;;;;;;;-0.04;68.01;93306.13;5091713;28;20052;-46
2020/12/04 05:51:39;;;;;;;29.67;16.65;;;;;;;0.02;67.68;93317.31;5091502;28;20056;-45
2020/12/04 05:54:08;;;;;;;27.85;15.77;;;;;;;0.01;68.12;93308.59;5091393;28;20044;-48
2020/12/04 05:56:34;;;;;;;30.65;16.38;;;;;;;-0.02;68.10;93312.66;5089764;28;20052;-49
2020/12/04 05:59:05;;;;;;;27.88;15.32;;;;;;;-0.12;68.58;93307.78;5091380;28;20131;-49
2020/12/04 06:01:32;;;;;;;27.60;15.10;;;;;;;-0.07;68.37;93315.53;5091317;28;20533;-48
2020/12/04 06:03:58;;;;;;;33.08;16.95;;;;;;;-0.06;68.47;93314.44;5089954;28;20134;-48
2020/12/04 06:06:31;;;;;;;30.95;16.75;;;;;;;0.00;68.49;93301.72;5090485;28;20051;-48
2020/12/04 06:09:01;;;;;;;;;;;;;;;0.25;67.36;93312.38;5091792;28;20072;-48
2020/12/04 06:11:37;;;;;;;32.05;15.65;;;;;;;0.06;68.37;93311.00;5091475;28;19924;-50
2020/12/04 06:14:22;;;;;;;33.83;16.70;;;;;;;0.08;68.58;93308.81;5090206;28;20062;-47
2020/12/04 06:17:00;;;;;;;29.95;16.92;;;;;;;0.08;68.48;93329.31;5090646;28;20131;-51
2020/12/04 06:19:34;;;;;;;28.48;15.70;;;;;;;0.14;67.80;93318.13;5090354;28;20135;-51
2020/12/04 06:22:22;;;;;;;29.70;15.30;;;;;;;0.26;67.76;93313.91;5091272;28;20052;-49
2020/12/04 06:24:52;;;;;;;29.60;16.38;;;;;;;0.22;67.44;93322.56;5091455;28;20071;-49
2020/12/04 06:27:36;;;;;;;28.80;16.17;;;;;;;0.18;68.32;93321.66;5090312;28;20123;-50
2020/12/04 06:30:05;;;;;;;30.17;16.95;;;;;;;0.15;68.17;93319.66;5073259;28;20051;-51
2020/12/04 06:32:38;;;;;;;32.55;16.58;;;;;;;0.24;68.19;93316.91;5091462;28;20048;-50
2020/12/04 06:35:07;;;;;;;26.58;15.57;;;;;;;0.14;68.31;93328.00;5091491;28;20059;-48
2020/12/04 06:37:42;;;;;;;30.73;16.08;;;;;;;0.26;68.03;93309.41;5090208;28;20044;-52
2020/12/04 06:40:28;;;;;;;30.60;16.42;;;;;;;0.27;67.69;93316.25;5091393;28;20059;-50
2020/12/04 06:43:01;;;;;;;31.35;16.30;;;;;;;0.25;67.33;93320.34;5091126;28;20135;-46
2020/12/04 06:45:45;;;;;;;32.40;17.60;;;;;;;-0.05;68.30;93325.84;5090503;28;20054;-47
2020/12/04 06:48:17;;;;;;;28.42;15.13;;;;;;;-0.13;68.99;93324.84;5091742;28;20118;-49
2020/12/04 06:50:45;;;;;;;31.48;16.33;;;;;;;-0.10;68.95;93312.75;5091704;28;20105;-48
2020/12/04 06:53:14;;;;;;;34.60;17.67;;;;;;;-0.11;68.88;93314.63;5091209;28;20060;-49
2020/12/04 06:55:42;;;;;;;32.70;17.25;;;;;;;-0.02;68.38;93314.56;5090400;28;20136;-51
2020/12/04 06:58:08;;;;;;;33.05;17.67;;;;;;;-0.32;68.67;93285.47;5091012;28;20127;-51
2020/12/04 07:00:36;;;;;;;33.63;16.75;;;;;;;-0.14;68.81;93307.31;5090981;28;20086;-49
2020/12/04 07:03:04;;;;;;;27.83;15.52;;;;;;;-0.06;68.79;93311.00;5091177;28;20193;-48
2020/12/04 07:05:32;;;;;;;30.00;15.77;;;;;;;0.03;68.51;93314.31;5090406;28;20131;-49
2020/12/04 07:08:07;;;;;;;28.55;15.07;;;;;;;0.12;68.02;93309.69;5090725;28;20040;-48
2020/12/04 07:10:36;;;;;;;26.67;15.32;;;;;;;0.10;68.37;93325.22;5091223;28;20056;-46
2020/12/04 07:13:05;;;;;;;30.20;14.70;;;;;;;0.14;68.11;93317.34;5091143;28;20055;-49
2020/12/04 07:15:33;;;;;;;30.75;15.68;;;;;;;0.26;67.98;93320.03;5090457;28;20086;-47
2020/12/04 07:18:00;;;;;;;30.17;16.52;;;;;;;0.25;67.73;93320.34;5089967;28;20048;-47
2020/12/04 07:20:37;;;;;;;31.38;15.77;;;;;;;0.30;67.98;93320.16;5092763;28;20470;-47
2020/12/04 07:23:07;;;;;;;30.70;15.55;;;;;;;0.38;67.74;93316.59;5094527;28;20056;-48
2020/12/04 07:25:36;;;;;;;27.52;14.65;;;;;;;0.20;68.34;93319.47;5094276;28;20109;-47
2020/12/04 07:28:03;;;;;;;27.88;14.98;;;;;;;0.19;68.20;93315.25;5094106;28;20048;-47
2020/12/04 07:30:30;;;;;;;29.00;16.35;;;;;;;0.12;68.27;93328.31;5093418;28;20390;-47
2020/12/04 07:32:57;;;;;;;28.88;16.08;;;;;;;0.27;67.96;93321.59;5093106;28;20390;-48
2020/12/04 07:35:24;;;;;;;29.42;15.18;;;;;;;0.21;67.83;93313.03;5093699;28;20564;-47
2020/12/04 07:37:51;;;;;;;31.08;15.75;;;;;;;0.31;68.10;93305.75;5093951;28;20058;-48
2020/12/04 07:40:18;;;;;;;26.42;15.07;;;;;;;0.37;67.80;93318.47;5094155;28;20075;-49
2020/12/04 07:42:45;;;;;;;24.60;14.50;;;;;;;0.41;67.23;93284.00;5094287;28;20072;-50
2020/12/04 07:45:15;;;;;;;29.00;15.05;;;;;;;0.73;66.68;93310.84;5093906;28;20123;-50
2020/12/04 07:47:42;;;;;;;31.88;14.85;;;;;;;0.55;67.39;93305.72;5093614;28;20497;-49
2020/12/04 07:50:11;;;;;;;27.80;14.45;;;;;;;0.61;66.71;93304.41;5094100;28;20687;-49
2020/12/04 07:52:49;;;;;;;26.98;13.82;;;;;;;0.57;67.12;93308.84;5093868;28;20056;-48
2020/12/04 07:55:18;;;;;;;24.25;14.00;;;;;;;0.56;67.08;93311.84;5093787;28;20063;-46
2020/12/04 07:58:05;;;;;;;25.13;14.90;;;;;;;0.67;66.89;93313.72;5093761;28;20191;-46
2020/12/04 08:00:33;;;;;;;24.90;12.77;;;;;;;0.56;66.38;93301.97;5093883;28;20084;-46
2020/12/04 08:03:09;;;;;;;23.80;13.82;;;;;;;0.56;67.07;93296.66;5093688;28;20048;-48
2020/12/04 08:05:36;;;;;;;28.63;14.23;;;;;;;0.73;66.51;93302.84;5093233;28;20044;-51
2020/12/04 08:08:04;;;;;;;25.90;13.98;;;;;;;0.89;66.42;93303.72;5093847;28;20086;-43
2020/12/04 08:10:30;;;;;;;28.00;13.57;;;;;;;0.99;65.92;93299.81;5093975;28;20131;-44
2020/12/04 08:12:57;;;;;;;26.90;14.25;;;;;;;1.09;65.38;93296.69;5094087;28;20067;-44
2020/12/04 08:15:24;;;;;;;23.60;13.68;;;;;;;1.01;66.17;93289.59;5092245;28;20147;-44
2020/12/04 08:18:04;;;;;;;22.10;12.88;;;;;;;0.86;66.52;93293.75;5093814;28;20132;-46
2020/12/04 08:20:31;;;;;;;24.67;12.75;;;;;;;0.87;66.00;93295.28;5093952;28;20135;-44
2020/12/04 08:22:57;;;;;;;22.67;13.18;;;;;;;1.03;65.67;93288.16;5093959;28;20125;-44
2020/12/04 08:25:26;;;;;;;26.33;13.40;;;;;;;1.09;65.68;93296.69;5093818;28;20071;-46
2020/12/04 08:27:53;;;;;;;26.73;13.60;;;;;;;1.02;66.46;93291.16;5093569;28;20048;-43
2020/12/04 08:30:22;;;;;;;26.40;13.50;;;;;;;1.25;65.40;93299.44;5093261;28;20048;-47
2020/12/04 08:32:49;;;;;;;23.10;12.73;;;;;;;1.20;65.29;93307.63;5094125;28;20055;-46
2020/12/04 08:35:18;;;;;;;24.23;12.35;;;;;;;1.25;64.79;93307.41;5093699;28;20445;-54
2020/12/04 08:37:46;;;;;;;22.88;13.05;;;;;;;1.18;66.14;93300.00;5094063;28;20506;-50
2020/12/04 08:40:31;;;;;;;24.92;12.63;;;;;;;1.24;66.19;93319.97;5093426;28;20527;-45
2020/12/04 08:43:10;;;;;;;23.40;12.98;;;;;;;1.39;65.38;93315.81;5093270;28;20130;-45
2020/12/04 08:45:39;;;;;;;26.27;13.73;;;;;;;1.34;65.43;93318.72;5092583;28;20079;-44
2020/12/04 08:48:07;;;;;;;24.42;13.75;;;;;;;1.33;65.67;93325.13;5093579;28;20126;-43
2020/12/04 08:50:40;;;;;;;22.60;12.20;;;;;;;1.29;65.46;93326.94;5076023;28;20086;-47
2020/12/04 08:53:09;;;;;;;22.65;11.75;;;;;;;1.37;65.61;93323.38;5093781;28;20044;-44
2020/12/04 08:55:36;;;;;;;23.20;12.05;;;;;;;1.40;65.83;93317.38;5093905;28;20116;-45
2020/12/04 08:58:02;;;;;;;22.70;12.88;;;;;;;1.60;64.40;93331.63;5093458;28;20048;-45
2020/12/04 09:00:33;;;;;;;24.70;11.63;;;;;;;1.56;65.47;93334.19;5092200;28;20079;-50
2020/12/04 09:03:00;;;;;;;21.73;13.38;;;;;;;1.72;64.40;93325.44;5093350;28;20416;-45
2020/12/04 09:05:26;;;;;;;23.02;12.68;;;;;;;1.75;63.87;93322.13;5092203;28;20126;-45
2020/12/04 09:07:53;;;;;;;19.77;12.00;;;;;;;1.93;63.65;93322.59;5092768;28;20059;-49
2020/12/04 09:10:20;;;;;;;22.02;12.15;;;;;;;1.99;63.78;93326.56;5093011;28;20459;-44
2020/12/04 09:12:50;;;;;;;22.67;12.77;;;;;;;1.89;63.49;93314.50;5092831;28;20105;-45
2020/12/04 09:15:18;;;;;;;20.80;11.93;;;;;;;1.71;64.49;93315.91;5092077;28;20054;-50
2020/12/04 09:17:45;;;;;;;21.00;11.88;;;;;;;1.85;64.44;93318.94;5092587;28;20072;-45
2020/12/04 09:20:13;;;;;;;20.65;11.25;;;;;;;1.87;64.18;93306.84;5092641;28;20082;-47
2020/12/04 09:22:40;;;;;;;24.10;12.98;;;;;;;1.76;64.06;93313.03;5092568;28;20461;-47
2020/12/04 09:25:09;;;;;;;22.13;12.27;;;;;;;1.84;64.39;93306.75;5092556;28;20425;-44
2020/12/04 09:27:36;;;;;;;23.10;12.63;;;;;;;2.02;63.53;93313.31;5091840;28;20040;-47
2020/12/04 09:30:04;;;;;;;22.95;11.95;;;;;;;2.09;63.91;93302.84;5092809;28;20440;-45
2020/12/04 09:32:31;;;;;;;21.67;11.88;;;;;;;2.03;63.32;93306.88;5092508;28;20051;-47
2020/12/04 09:34:58;;;;;;;23.13;12.48;;;;;;;2.16;63.33;93293.47;5092322;28;20063;-48
2020/12/04 09:37:33;;;;;;;23.48;13.70;;;;;;;2.28;62.84;93298.72;5091327;28;20109;-47
2020/12/04 09:40:11;;;;;;;22.10;11.82;;;;;;;2.27;62.46;93271.25;5090979;28;20501;-51
2020/12/04 09:42:38;;;;;;;21.20;12.38;;;;;;;2.44;62.67;93280.81;5091669;28;20067;-45
2020/12/04 09:45:06;;;;;;;22.30;12.88;;;;;;;2.50;62.25;93266.09;5093014;28;20048;-44
2020/12/04 09:47:34;;;;;;;22.13;12.13;;;;;;;2.58;61.96;93265.13;5092288;28;20078;-48
2020/12/04 09:50:02;;;;;;;21.60;13.00;;;;;;;2.58;61.89;93262.47;5092096;28;20044;-50
2020/12/04 09:52:29;;;;;;;23.67;12.98;;;;;;;2.78;61.72;93273.19;5092126;28;20126;-49
2020/12/04 09:54:58;;;;;;;20.08;11.65;;;;;;;2.75;61.47;93271.97;5092035;28;20050;-47
2020/12/04 09:57:25;;;;;;;23.00;12.60;;;;;;;2.72;61.45;93259.31;5092039;28;20150;-48
2020/12/04 09:59:51;;;;;;;21.65;12.70;;;;;;;2.74;61.53;93261.66;5091934;28;20083;-46
2020/12/04 10:02:18;;;;;;;22.50;12.32;;;;;;;2.75;62.01;93244.50;5091817;28;20048;-48
2020/12/04 10:04:44;;;;;;;22.27;12.75;;;;;;;2.93;61.52;93245.69;5091702;28;20047;-47
2020/12/04 10:07:11;;;;;;;24.92;13.43;;;;;;;2.99;61.13;93238.94;5091023;28;20060;-48
2020/12/04 10:09:38;;;;;;;22.48;12.52;;;;;;;2.99;61.12;93241.63;5091904;28;20147;-45
2020/12/04 10:12:05;;;;;;;23.13;11.95;;;;;;;2.99;61.24;93241.63;5092445;28;20047;-45
2020/12/04 10:14:35;;;;;;;23.05;12.85;;;;;;;3.11;61.00;93231.91;5091788;28;20098;-44
2020/12/04 10:17:02;;;;;;;21.50;12.57;;;;;;;2.96;61.88;93230.88;5091399;28;20072;-48
2020/12/04 10:19:28;;;;;;;24.48;13.15;;;;;;;3.11;61.18;93239.94;5091470;28;20493;-45
2020/12/04 10:21:55;;;;;;;24.60;12.35;;;;;;;3.06;61.17;93234.88;5091748;28;20054;-47
2020/12/04 10:24:22;;;;;;;22.85;11.90;;;;;;;3.13;61.20;93229.69;5091831;28;20052;-47
2020/12/04 10:26:50;;;;;;;22.52;12.18;;;;;;;3.04;61.50;93219.19;5090742;28;20059;-49
2020/12/04 10:29:18;;;;;;;21.85;12.63;;;;;;;3.14;61.17;93223.19;5091216;28;20056;-48
2020/12/04 10:31:46;;;;;;;20.70;11.77;;;;;;;3.22;61.43;93224.91;5091269;28;20076;-50
2020/12/04 10:34:13;;;;;;;22.30;12.95;;;;;;;3.28;60.78;93212.78;5091321;28;20568;-49
2020/12/04 10:36:40;;;;;;;25.52;13.25;;;;;;;3.27;61.29;93208.56;5090533;28;20048;-48
2020/12/04 10:39:09;;;;;;;24.48;13.48;;;;;;;3.22;61.49;93203.53;5091119;28;20544;-51
2020/12/04 10:41:37;;;;;;;24.77;12.82;;;;;;;3.04;61.33;93206.59;5091261;28;20147;-48
2020/12/04 10:44:05;;;;;;;22.30;12.63;;;;;;;3.00;61.50;93191.63;5090657;28;20076;-50
2020/12/04 10:46:34;;;;;;;23.58;12.70;;;;;;;2.97;61.50;93193.09;5090423;28;20051;-49
2020/12/04 10:49:02;;;;;;;23.48;12.73;;;;;;;2.90;62.00;93189.53;5091048;28;20048;-46
2020/12/04 10:51:28;;;;;;;24.02;13.88;;;;;;;2.88;62.01;93194.44;5089986;28;20044;-50
2020/12/04 10:53:55;;;;;;;22.35;12.90;;;;;;;2.91;62.07;93189.16;5092015;28;20058;-49
2020/12/04 10:56:23;;;;;;;28.35;13.05;;;;;;;2.95;61.78;93171.31;5094485;28;20079;-49
2020/12/04 10:58:51;;;;;;;23.30;12.45;;;;;;;2.79;62.18;93166.06;5095017;28;20126;-46
2020/12/04 11:01:33;;;;;;;25.85;13.32;;;;;;;2.97;62.07;93163.72;5095259;28;20044;-47
2020/12/04 11:06:45;;;;;;;22.00;13.65;;;;;;;3.02;62.03;93151.97;5093940;28;20101;-48
2020/12/04 11:09:11;;;;;;;24.13;13.80;;;;;;;3.10;62.31;93164.34;5093652;28;20050;-51
2020/12/04 11:11:37;;;;;;;24.90;13.52;;;;;;;3.13;62.27;93144.19;5094919;28;20067;-48
2020/12/04 11:14:04;;;;;;;28.30;13.82;;;;;;;3.09;62.49;93168.16;5094653;28;20083;-47
2020/12/04 11:16:30;;;;;;;24.20;13.15;;;;;;;2.95;62.92;93152.63;5094102;28;20055;-49
2020/12/04 11:18:57;;;;;;;26.05;13.70;;;;;;;2.97;63.10;93166.41;5095092;28;20501;-47
2020/12/04 11:21:28;;;;;;;23.20;13.23;;;;;;;3.11;62.77;93170.47;5093830;28;20083;-45
2020/12/04 11:23:54;;;;;;;24.85;13.32;;;;;;;3.19;62.60;93172.16;5095163;28;20044;-46
2020/12/04 11:26:21;;;;;;;26.42;13.85;;;;;;;3.28;62.52;93165.47;5093945;28;20107;-45
2020/12/04 11:28:47;;;;;;;23.55;13.18;;;;;;;3.17;62.19;93148.47;5094497;28;20082;-45
2020/12/04 11:31:14;;;;;;;24.17;13.48;;;;;;;3.43;62.38;93150.47;5094631;28;20137;-45